PWSweather.com
Personal Weather Stations
Station Observations
RHPWSHOR1
Lostock, BoltonGB

LostockBoltonGB

Lat: 53.58073044, Lon: -2.52344131

Elevation: 389

Station Type: Oregon Scientific WMR100

Latest ConditionsUpdated 11:53:36 AM GMT Tuesday, May 31, 2016
Currently Today's Max Today's Min Today's Average
Temperature 66.6°F19.2°C 69.3°F20.7°C 49.1°F9.5°C 59.7°F15.4°C
Dew Point 17.5°F-8.1°C 29.8°F-1.2°C 8.9°F-12.8°C 20.9°F-6.2°C
Winds 5.8 mph NNW9.3 kmh NNW 9.8 mph WNW15.8 kmh WNW - 3.4 mph 5.5 kmh
Wind Gusts 5.8 mph9.3 kmh 11.0 mph17.7 kmh - -
Humidity 15% 42% 10% 25%
Pressure 29.59 in1002.0 mb 29.62 in1003.0 mb 29.56 in1001.0 mb -
Hour Temp Dew Point Humidity Winds Wind Gusts Pressure Precip Precip Rate Daily Precip Total
11:53 AM 66.6°F19.2°C 17.5°F-8.1°C 15% 5.8 mph NNW9.3 kmh NNW 5.8 mph9.3 kmh 29.59 in1002.0 mb 0.00 in0.0 mm 0.00 in0.0 mm 0.00 in0.0 mm
11:46 AM 67.3°F19.6°C 18.1°F-7.7°C 15% 2.5 mph W4.0 kmh W 3.1 mph5.0 kmh 29.59 in1002.0 mb 0.00 in0.0 mm 0.00 in0.0 mm 0.00 in0.0 mm
11:39 AM 66.9°F19.4°C 17.8°F-7.9°C 15% 5.4 mph ESE8.7 kmh ESE 5.6 mph9.0 kmh 29.59 in1002.0 mb 0.00 in0.0 mm 0.00 in0.0 mm 0.00 in0.0 mm
11:32 AM 66.6°F19.2°C 17.5°F-8.1°C 15% 3.8 mph NE6.1 kmh NE 3.8 mph6.1 kmh 29.59 in1002.0 mb 0.00 in0.0 mm 0.00 in0.0 mm 0.00 in0.0 mm
11:24 AM 67.8°F19.9°C 13.4°F-10.3°C 12% 4.9 mph ENE7.9 kmh ENE 5.4 mph8.7 kmh 29.59 in1002.0 mb 0.00 in0.0 mm 0.00 in0.0 mm 0.00 in0.0 mm
11:17 AM 67.3°F19.6°C 13.0°F-10.6°C 12% 3.4 mph NNW5.5 kmh NNW 3.4 mph5.5 kmh 29.59 in1002.0 mb 0.00 in0.0 mm 0.00 in0.0 mm 0.00 in0.0 mm
11:10 AM 67.5°F19.7°C 13.1°F-10.5°C 12% 3.6 mph ENE5.8 kmh ENE 8.1 mph13.0 kmh 29.59 in1002.0 mb 0.00 in0.0 mm 0.00 in0.0 mm 0.00 in0.0 mm
11:03 AM 67.5°F19.7°C 13.1°F-10.5°C 12% 5.4 mph NE8.7 kmh NE 6.0 mph9.7 kmh 29.59 in1002.0 mb 0.00 in0.0 mm 0.00 in0.0 mm 0.00 in0.0 mm
10:56 AM 66.7°F19.3°C 12.5°F-10.8°C 12% 4.3 mph WNW6.9 kmh WNW 7.4 mph11.9 kmh 29.59 in1002.0 mb 0.00 in0.0 mm 0.00 in0.0 mm 0.00 in0.0 mm
10:49 AM 67.8°F19.9°C 13.4°F-10.3°C 12% 4.5 mph NNE7.2 kmh NNE 4.5 mph7.2 kmh 29.59 in1002.0 mb 0.00 in0.0 mm 0.00 in0.0 mm 0.00 in0.0 mm
10:42 AM 68.0°F20.0°C 13.5°F-10.3°C 12% 3.1 mph WNW5.0 kmh WNW 3.1 mph5.0 kmh 29.62 in1003.0 mb 0.00 in0.0 mm 0.00 in0.0 mm 0.00 in0.0 mm
10:35 AM 68.2°F20.1°C 13.7°F-10.2°C 12% 2.9 mph NNW4.7 kmh NNW 3.4 mph5.5 kmh 29.62 in1003.0 mb 0.00 in0.0 mm 0.00 in0.0 mm 0.00 in0.0 mm
10:28 AM 68.2°F20.1°C 9.6°F-12.4°C 10% 2.7 mph E4.3 kmh E 5.8 mph9.3 kmh 29.59 in1002.0 mb 0.00 in0.0 mm 0.00 in0.0 mm 0.00 in0.0 mm
10:21 AM 68.0°F20.0°C 9.4°F-12.6°C 10% 2.5 mph NNW4.0 kmh NNW 3.1 mph5.0 kmh 29.59 in1002.0 mb 0.00 in0.0 mm 0.00 in0.0 mm 0.00 in0.0 mm
10:14 AM 68.2°F20.1°C 9.6°F-12.4°C 10% 3.4 mph NNE5.5 kmh NNE 3.4 mph5.5 kmh 29.59 in1002.0 mb 0.00 in0.0 mm 0.00 in0.0 mm 0.00 in0.0 mm
10:07 AM 68.2°F20.1°C 9.6°F-12.4°C 10% 1.1 mph WNW1.8 kmh WNW 2.7 mph4.3 kmh 29.59 in1002.0 mb 0.00 in0.0 mm 0.00 in0.0 mm 0.00 in0.0 mm
10:00 AM 67.8°F19.9°C 9.3°F-12.6°C 10% 5.6 mph NE9.0 kmh NE 5.6 mph9.0 kmh 29.56 in1001.0 mb 0.00 in0.0 mm 0.00 in0.0 mm 0.00 in0.0 mm
09:53 AM 68.4°F20.2°C 9.7°F-12.4°C 10% 3.1 mph NNW5.0 kmh NNW 3.1 mph5.0 kmh 29.56 in1001.0 mb 0.00 in0.0 mm 0.00 in0.0 mm 0.00 in0.0 mm
09:46 AM 68.5°F20.3°C 9.8°F-12.3°C 10% 6.0 mph SE9.7 kmh SE 7.6 mph12.2 kmh 29.59 in1002.0 mb 0.00 in0.0 mm 0.00 in0.0 mm 0.00 in0.0 mm
09:39 AM 69.3°F20.7°C 14.5°F-9.7°C 12% 4.3 mph WNW6.9 kmh WNW 4.3 mph6.9 kmh 29.59 in1002.0 mb 0.00 in0.0 mm 0.00 in0.0 mm 0.00 in0.0 mm
09:32 AM 69.3°F20.7°C 14.5°F-9.7°C 12% 7.8 mph NNE12.6 kmh NNE 7.8 mph12.6 kmh 29.56 in1001.0 mb 0.00 in0.0 mm 0.00 in0.0 mm 0.00 in0.0 mm
09:24 AM 68.7°F20.4°C 14.1°F-9.9°C 12% 2.9 mph WNW4.7 kmh WNW 2.9 mph4.7 kmh 29.56 in1001.0 mb 0.00 in0.0 mm 0.00 in0.0 mm 0.00 in0.0 mm
09:17 AM 68.4°F20.2°C 9.7°F-12.4°C 10% 5.8 mph NNW9.3 kmh NNW 5.8 mph9.3 kmh 29.59 in1002.0 mb 0.00 in0.0 mm 0.00 in0.0 mm 0.00 in0.0 mm
09:10 AM 67.6°F19.8°C 9.2°F-12.7°C 10% 4.3 mph NNE6.9 kmh NNE 10.1 mph16.3 kmh 29.59 in1002.0 mb 0.00 in0.0 mm 0.00 in0.0 mm 0.00 in0.0 mm
09:02 AM 67.3°F19.6°C 8.9°F-12.8°C 10% 8.7 mph WNW14.0 kmh WNW 8.7 mph14.0 kmh 29.59 in1002.0 mb 0.00 in0.0 mm 0.00 in0.0 mm 0.00 in0.0 mm
08:54 AM 68.4°F20.2°C 9.7°F-12.4°C 10% 2.9 mph NW4.7 kmh NW 4.3 mph6.9 kmh 29.56 in1001.0 mb 0.00 in0.0 mm 0.00 in0.0 mm 0.00 in0.0 mm
08:46 AM 67.6°F19.8°C 9.2°F-12.7°C 10% 2.7 mph WNW4.3 kmh WNW 3.4 mph5.5 kmh 29.56 in1001.0 mb 0.00 in0.0 mm 0.00 in0.0 mm 0.00 in0.0 mm
08:39 AM 67.5°F19.7°C 9.0°F-12.8°C 10% 9.8 mph WNW15.8 kmh WNW 11.0 mph17.7 kmh 29.56 in1001.0 mb 0.00 in0.0 mm 0.00 in0.0 mm 0.00 in0.0 mm
08:32 AM 68.5°F20.3°C 9.8°F-12.3°C 10% 4.7 mph NNW7.6 kmh NNW 4.7 mph7.6 kmh 29.56 in1001.0 mb 0.00 in0.0 mm 0.00 in0.0 mm 0.00 in0.0 mm
08:24 AM 68.5°F20.3°C 14.0°F-10.0°C 12% 3.4 mph WNW5.5 kmh WNW 3.4 mph5.5 kmh 29.56 in1001.0 mb 0.00 in0.0 mm 0.00 in0.0 mm 0.00 in0.0 mm
08:17 AM 68.2°F20.1°C 9.6°F-12.4°C 10% 3.1 mph NNW5.0 kmh NNW 4.0 mph6.4 kmh 29.56 in1001.0 mb 0.00 in0.0 mm 0.00 in0.0 mm 0.00 in0.0 mm
08:09 AM 69.3°F20.7°C 14.5°F-9.7°C 12% 2.5 mph ESE4.0 kmh ESE 2.9 mph4.7 kmh 29.56 in1001.0 mb 0.00 in0.0 mm 0.00 in0.0 mm 0.00 in0.0 mm
08:02 AM 67.1°F19.5°C 12.8°F-10.7°C 12% 7.8 mph WNW12.6 kmh WNW 7.8 mph12.6 kmh 29.56 in1001.0 mb 0.00 in0.0 mm 0.00 in0.0 mm 0.00 in0.0 mm
07:54 AM 67.3°F19.6°C 13.0°F-10.6°C 12% 6.0 mph NNW9.7 kmh NNW 6.0 mph9.7 kmh 29.56 in1001.0 mb 0.00 in0.0 mm 0.00 in0.0 mm 0.00 in0.0 mm
07:46 AM 68.0°F20.0°C 18.7°F-7.4°C 15% Calm Calm -- 29.56 in1001.0 mb 0.00 in0.0 mm 0.00 in0.0 mm 0.00 in0.0 mm
07:39 AM 66.2°F19.0°C 17.2°F-8.2°C 15% 2.0 mph W3.2 kmh W 4.0 mph6.4 kmh 29.56 in1001.0 mb 0.00 in0.0 mm 0.00 in0.0 mm 0.00 in0.0 mm
07:32 AM 65.5°F18.6°C 16.6°F-8.6°C 15% 8.1 mph W13.0 kmh W 8.1 mph13.0 kmh 29.59 in1002.0 mb 0.00 in0.0 mm 0.00 in0.0 mm 0.00 in0.0 mm
07:25 AM 64.6°F18.1°C 20.2°F-6.6°C 18% 1.3 mph WNW2.1 kmh WNW 3.4 mph5.5 kmh 29.59 in1002.0 mb 0.00 in0.0 mm 0.00 in0.0 mm 0.00 in0.0 mm
07:18 AM 64.0°F17.8°C 17.0°F-8.3°C 16% 3.4 mph ENE5.5 kmh ENE 3.4 mph5.5 kmh 29.59 in1002.0 mb 0.00 in0.0 mm 0.00 in0.0 mm 0.00 in0.0 mm
07:11 AM 63.5°F17.5°C 19.3°F-7.1°C 18% 3.6 mph NNW5.8 kmh NNW 3.6 mph5.8 kmh 29.56 in1001.0 mb 0.00 in0.0 mm 0.00 in0.0 mm 0.00 in0.0 mm
07:04 AM 63.0°F17.2°C 16.1°F-8.8°C 16% 2.7 mph NNE4.3 kmh NNE 4.7 mph7.6 kmh 29.56 in1001.0 mb 0.00 in0.0 mm 0.00 in0.0 mm 0.00 in0.0 mm
06:57 AM 63.5°F17.5°C 19.3°F-7.1°C 18% 2.7 mph SW4.3 kmh SW 3.6 mph5.8 kmh 29.59 in1002.0 mb 0.00 in0.0 mm 0.00 in0.0 mm 0.00 in0.0 mm
06:50 AM 62.2°F16.8°C 19.5°F-6.9°C 19% 5.8 mph NNE9.3 kmh NNE 5.8 mph9.3 kmh 29.59 in1002.0 mb 0.00 in0.0 mm 0.00 in0.0 mm 0.00 in0.0 mm
06:42 AM 62.4°F16.9°C 22.0°F-5.6°C 21% 4.3 mph WNW6.9 kmh WNW 4.3 mph6.9 kmh 29.56 in1001.0 mb 0.00 in0.0 mm 0.00 in0.0 mm 0.00 in0.0 mm
06:35 AM 62.2°F16.8°C 25.0°F-3.9°C 24% 2.5 mph ENE4.0 kmh ENE 2.5 mph4.0 kmh 29.56 in1001.0 mb 0.00 in0.0 mm 0.00 in0.0 mm 0.00 in0.0 mm
06:28 AM 62.1°F16.7°C 24.9°F-3.9°C 24% 1.6 mph ENE2.6 kmh ENE 3.6 mph5.8 kmh 29.56 in1001.0 mb 0.00 in0.0 mm 0.00 in0.0 mm 0.00 in0.0 mm
06:21 AM 60.4°F15.8°C 24.5°F-4.2°C 25% 3.6 mph WNW5.8 kmh WNW 7.2 mph11.6 kmh 29.56 in1001.0 mb 0.00 in0.0 mm 0.00 in0.0 mm 0.00 in0.0 mm
06:14 AM 60.1°F15.6°C 24.2°F-4.3°C 25% 2.0 mph SSE3.2 kmh SSE 2.7 mph4.3 kmh 29.56 in1001.0 mb 0.00 in0.0 mm 0.00 in0.0 mm 0.00 in0.0 mm
06:06 AM 59.7°F15.4°C 23.9°F-4.5°C 25% 2.0 mph NNE3.2 kmh NNE 2.5 mph4.0 kmh 29.56 in1001.0 mb 0.00 in0.0 mm 0.00 in0.0 mm 0.00 in0.0 mm
05:58 AM 60.1°F15.6°C 24.2°F-4.3°C 25% 2.5 mph SSE4.0 kmh SSE 3.6 mph5.8 kmh 29.56 in1001.0 mb 0.00 in0.0 mm 0.00 in0.0 mm 0.00 in0.0 mm
05:51 AM 59.7°F15.4°C 23.9°F-4.5°C 25% 1.3 mph NNE2.1 kmh NNE 3.1 mph5.0 kmh 29.56 in1001.0 mb 0.00 in0.0 mm 0.00 in0.0 mm 0.00 in0.0 mm
05:44 AM 58.6°F14.8°C 22.9°F-5.1°C 25% 2.5 mph NE4.0 kmh NE 2.5 mph4.0 kmh 29.56 in1001.0 mb 0.00 in0.0 mm 0.00 in0.0 mm 0.00 in0.0 mm
05:37 AM 58.8°F14.9°C 24.0°F-4.4°C 26% 2.5 mph SSE4.0 kmh SSE 2.5 mph4.0 kmh 29.56 in1001.0 mb 0.00 in0.0 mm 0.00 in0.0 mm 0.00 in0.0 mm
05:30 AM 59.2°F15.1°C 27.0°F-2.8°C 29% 1.3 mph WNW2.1 kmh WNW 1.6 mph2.6 kmh 29.56 in1001.0 mb 0.00 in0.0 mm 0.00 in0.0 mm 0.00 in0.0 mm
05:22 AM 58.1°F14.5°C 26.9°F-2.8°C 30% 2.5 mph NNE4.0 kmh NNE 2.5 mph4.0 kmh 29.56 in1001.0 mb 0.00 in0.0 mm 0.00 in0.0 mm 0.00 in0.0 mm
05:16 AM 57.2°F14.0°C 29.8°F-1.2°C 35% 3.1 mph WNW5.0 kmh WNW 3.1 mph5.0 kmh 29.56 in1001.0 mb 0.00 in0.0 mm 0.00 in0.0 mm 0.00 in0.0 mm
05:09 AM 55.6°F13.1°C 29.1°F-1.6°C 36% 6.7 mph W10.8 kmh W 6.7 mph10.8 kmh 29.56 in1001.0 mb 0.00 in0.0 mm 0.00 in0.0 mm 0.00 in0.0 mm
05:02 AM 53.2°F11.8°C 28.3°F-2.1°C 38% 2.5 mph ENE4.0 kmh ENE 4.0 mph6.4 kmh 29.56 in1001.0 mb 0.00 in0.0 mm 0.00 in0.0 mm 0.00 in0.0 mm
04:55 AM 51.6°F10.9°C 28.1°F-2.2°C 40% Calm Calm -- 29.56 in1001.0 mb 0.00 in0.0 mm 0.00 in0.0 mm 0.00 in0.0 mm
04:48 AM 51.6°F10.9°C 28.7°F-1.8°C 41% 3.1 mph SSW5.0 kmh SSW 3.1 mph5.0 kmh 29.56 in1001.0 mb 0.00 in0.0 mm 0.00 in0.0 mm 0.00 in0.0 mm
04:41 AM 50.4°F10.2°C 27.0°F-2.8°C 40% 1.3 mph WSW2.1 kmh WSW 1.3 mph2.1 kmh 29.56 in1001.0 mb 0.00 in0.0 mm 0.00 in0.0 mm 0.00 in0.0 mm
04:34 AM 50.4°F10.2°C 27.0°F-2.8°C 40% 1.6 mph ESE2.6 kmh ESE 1.6 mph2.6 kmh 29.56 in1001.0 mb 0.00 in0.0 mm 0.00 in0.0 mm 0.00 in0.0 mm
04:27 AM 50.5°F10.3°C 27.1°F-2.7°C 40% 1.3 mph WNW2.1 kmh WNW 1.3 mph2.1 kmh 29.59 in1002.0 mb 0.00 in0.0 mm 0.00 in0.0 mm 0.00 in0.0 mm
04:20 AM 50.9°F10.5°C 28.1°F-2.2°C 41% 2.5 mph SSW4.0 kmh SSW 3.1 mph5.0 kmh 29.59 in1002.0 mb 0.00 in0.0 mm 0.00 in0.0 mm 0.00 in0.0 mm
04:13 AM 50.4°F10.2°C 27.6°F-2.4°C 41% 2.0 mph S3.2 kmh S 2.0 mph3.2 kmh 29.59 in1002.0 mb 0.00 in0.0 mm 0.00 in0.0 mm 0.00 in0.0 mm
04:06 AM 49.8°F9.9°C 27.7°F-2.4°C 42% 1.1 mph WSW1.8 kmh WSW 2.9 mph4.7 kmh 29.59 in1002.0 mb 0.00 in0.0 mm 0.00 in0.0 mm 0.00 in0.0 mm
03:59 AM 49.3°F9.6°C 26.0°F-3.3°C 40% 1.1 mph S1.8 kmh S 2.9 mph4.7 kmh 29.59 in1002.0 mb 0.00 in0.0 mm 0.00 in0.0 mm 0.00 in0.0 mm
03:52 AM 49.1°F9.5°C 25.2°F-3.8°C 39% Calm Calm -- 29.59 in1002.0 mb 0.00 in0.0 mm 0.00 in0.0 mm 0.00 in0.0 mm
03:45 AM 49.5°F9.7°C 24.9°F-3.9°C 38% 1.3 mph WNW2.1 kmh WNW 1.6 mph2.6 kmh 29.59 in1002.0 mb 0.00 in0.0 mm 0.00 in0.0 mm 0.00 in0.0 mm
03:38 AM 50.0°F10.0°C 24.8°F-4.0°C 37% 2.9 mph NNW4.7 kmh NNW 3.1 mph5.0 kmh 29.59 in1002.0 mb 0.00 in0.0 mm 0.00 in0.0 mm 0.00 in0.0 mm
03:31 AM 50.4°F10.2°C 25.1°F-3.8°C 37% 1.3 mph WNW2.1 kmh WNW 1.3 mph2.1 kmh 29.59 in1002.0 mb 0.00 in0.0 mm 0.00 in0.0 mm 0.00 in0.0 mm
03:24 AM 51.3°F10.7°C 25.2°F-3.8°C 36% Calm Calm 1.1 mph1.8 kmh 29.59 in1002.0 mb 0.00 in0.0 mm 0.00 in0.0 mm 0.00 in0.0 mm
03:17 AM 51.8°F11.0°C 25.0°F-3.9°C 35% 1.3 mph ENE2.1 kmh ENE 1.3 mph2.1 kmh 29.59 in1002.0 mb 0.00 in0.0 mm 0.00 in0.0 mm 0.00 in0.0 mm
03:10 AM 53.1°F11.7°C 24.7°F-4.1°C 33% 2.0 mph WSW3.2 kmh WSW 2.0 mph3.2 kmh 29.59 in1002.0 mb 0.00 in0.0 mm 0.00 in0.0 mm 0.00 in0.0 mm
03:03 AM 53.2°F11.8°C 24.9°F-3.9°C 33% 3.6 mph NNE5.8 kmh NNE 3.6 mph5.8 kmh 29.56 in1001.0 mb 0.00 in0.0 mm 0.00 in0.0 mm 0.00 in0.0 mm
02:56 AM 53.4°F11.9°C 25.1°F-3.8°C 33% 4.0 mph WSW6.4 kmh WSW 4.3 mph6.9 kmh 29.56 in1001.0 mb 0.00 in0.0 mm 0.00 in0.0 mm 0.00 in0.0 mm
02:49 AM 53.1°F11.7°C 26.2°F-3.2°C 35% 4.9 mph SSE7.9 kmh SSE 5.6 mph9.0 kmh 29.56 in1001.0 mb 0.00 in0.0 mm 0.00 in0.0 mm 0.00 in0.0 mm
02:42 AM 52.7°F11.5°C 26.5°F-3.1°C 36% 3.8 mph WNW6.1 kmh WNW 3.8 mph6.1 kmh 29.59 in1002.0 mb 0.00 in0.0 mm 0.00 in0.0 mm 0.00 in0.0 mm
02:35 AM 52.3°F11.3°C 26.2°F-3.2°C 36% 1.3 mph WNW2.1 kmh WNW 2.7 mph4.3 kmh 29.59 in1002.0 mb 0.00 in0.0 mm 0.00 in0.0 mm 0.00 in0.0 mm
02:28 AM 52.3°F11.3°C 26.2°F-3.2°C 36% 3.1 mph NNW5.0 kmh NNW 3.1 mph5.0 kmh 29.56 in1001.0 mb 0.00 in0.0 mm 0.00 in0.0 mm 0.00 in0.0 mm
02:21 AM 52.5°F11.4°C 26.4°F-3.1°C 36% 4.0 mph ENE6.4 kmh ENE 4.0 mph6.4 kmh 29.56 in1001.0 mb 0.00 in0.0 mm 0.00 in0.0 mm 0.00 in0.0 mm
02:14 AM 52.7°F11.5°C 26.5°F-3.1°C 36% 4.0 mph WSW6.4 kmh WSW 7.6 mph12.2 kmh 29.59 in1002.0 mb 0.00 in0.0 mm 0.00 in0.0 mm 0.00 in0.0 mm
02:07 AM 53.1°F11.7°C 26.8°F-2.9°C 36% 4.3 mph NNW6.9 kmh NNW 4.3 mph6.9 kmh 29.59 in1002.0 mb 0.00 in0.0 mm 0.00 in0.0 mm 0.00 in0.0 mm
02:00 AM 53.2°F11.8°C 27.0°F-2.8°C 36% 2.9 mph WNW4.7 kmh WNW 4.0 mph6.4 kmh 29.56 in1001.0 mb 0.00 in0.0 mm 0.00 in0.0 mm 0.00 in0.0 mm
01:53 AM 53.6°F12.0°C 25.9°F-3.4°C 34% 4.3 mph NNW6.9 kmh NNW 4.3 mph6.9 kmh 29.56 in1001.0 mb 0.00 in0.0 mm 0.00 in0.0 mm 0.00 in0.0 mm
01:46 AM 53.6°F12.0°C 25.9°F-3.4°C 34% 4.3 mph WNW6.9 kmh WNW 4.3 mph6.9 kmh 29.56 in1001.0 mb 0.00 in0.0 mm 0.00 in0.0 mm 0.00 in0.0 mm
01:39 AM 53.6°F12.0°C 26.6°F-3.0°C 35% 3.4 mph 5.5 kmh 8.7 mph14.0 kmh 29.56 in1001.0 mb 0.00 in0.0 mm 0.00 in0.0 mm 0.00 in0.0 mm
01:32 AM 53.6°F12.0°C 26.6°F-3.0°C 35% 4.3 mph NNW6.9 kmh NNW 4.3 mph6.9 kmh 29.56 in1001.0 mb 0.00 in0.0 mm 0.00 in0.0 mm 0.00 in0.0 mm
01:25 AM 54.0°F12.2°C 27.0°F-2.8°C 35% 4.9 mph WSW7.9 kmh WSW 4.9 mph7.9 kmh 29.56 in1001.0 mb 0.00 in0.0 mm 0.00 in0.0 mm 0.00 in0.0 mm
01:18 AM 54.0°F12.2°C 27.0°F-2.8°C 35% 4.9 mph NNW7.9 kmh NNW 4.9 mph7.9 kmh 29.56 in1001.0 mb 0.00 in0.0 mm 0.00 in0.0 mm 0.00 in0.0 mm
01:11 AM 54.0°F12.2°C 27.6°F-2.4°C 36% 3.6 mph WNW5.8 kmh WNW 3.8 mph6.1 kmh 29.59 in1002.0 mb 0.00 in0.0 mm 0.00 in0.0 mm 0.00 in0.0 mm
01:04 AM 54.0°F12.2°C 27.6°F-2.4°C 36% 5.6 mph W9.0 kmh W 5.6 mph9.0 kmh 29.59 in1002.0 mb 0.00 in0.0 mm 0.00 in0.0 mm 0.00 in0.0 mm
12:57 AM 54.0°F12.2°C 27.6°F-2.4°C 36% 3.4 mph E5.5 kmh E 4.9 mph7.9 kmh 29.59 in1002.0 mb 0.00 in0.0 mm 0.00 in0.0 mm 0.00 in0.0 mm
12:49 AM 54.0°F12.2°C 27.6°F-2.4°C 36% 2.0 mph WSW3.2 kmh WSW 3.6 mph5.8 kmh 29.59 in1002.0 mb 0.00 in0.0 mm 0.00 in0.0 mm 0.00 in0.0 mm
12:43 AM 53.4°F11.9°C 27.8°F-2.3°C 37% 2.7 mph ENE4.3 kmh ENE 3.8 mph6.1 kmh 29.59 in1002.0 mb 0.00 in0.0 mm 0.00 in0.0 mm 0.00 in0.0 mm
12:36 AM 53.6°F12.0°C 28.0°F-2.2°C 37% 3.6 mph SSE5.8 kmh SSE 3.6 mph5.8 kmh 29.59 in1002.0 mb 0.00 in0.0 mm 0.00 in0.0 mm 0.00 in0.0 mm
12:29 AM 53.8°F12.1°C 28.1°F-2.2°C 37% 4.0 mph NW6.4 kmh NW 4.0 mph6.4 kmh 29.59 in1002.0 mb 0.00 in0.0 mm 0.00 in0.0 mm 0.00 in0.0 mm
12:22 AM 54.1°F12.3°C 28.5°F-1.9°C 37% 3.6 mph WSW5.8 kmh WSW 3.8 mph6.1 kmh 29.59 in1002.0 mb 0.00 in0.0 mm 0.00 in0.0 mm 0.00 in0.0 mm
12:15 AM 54.5°F12.5°C 28.1°F-2.2°C 36% 4.0 mph W6.4 kmh W 4.0 mph6.4 kmh 29.59 in1002.0 mb 0.00 in0.0 mm 0.00 in0.0 mm 0.00 in0.0 mm
12:08 AM 54.9°F12.7°C 28.4°F-2.0°C 36% 5.6 mph SSW9.0 kmh SSW 5.6 mph9.0 kmh 29.59 in1002.0 mb 0.00 in0.0 mm 0.00 in0.0 mm 0.00 in0.0 mm
12:01 AM 54.9°F12.7°C 28.4°F-2.0°C 36% 2.9 mph W4.7 kmh W 5.6 mph9.0 kmh 29.59 in1002.0 mb 0.00 in0.0 mm 0.00 in0.0 mm 0.00 in0.0 mm